AUTO METAR SSNG 020730Z 21002KT CAVOK 14/13 Q1012